Petawawa, Canada
Current Conditions -  °F | °C
As of 5:00 AM on Friday 19 Dec 2014 (Local Time) from CYWA Reporting Station
Broken Clouds Broken Clouds  
Wind Chill:   Ceiling: 1700
Heat Index: 14°   Visibility: 9mi
Dew Point: 10°   Wind: 7mph
Humidity: 86%   Direction: 300°WNW
Pressure: 30.1"   Gusts: NA
Location:  45.9°N, 77.28°W
Report Text: CYWA 191000Z AUTO 30006KT 9SM BKN017 M10/M12 A3010 RMK SLP203
Loading
Personal Weather Stations






























Interactive Weather Map New forecast layout! Learn more

10-Day Weather Forecast

Advertisements
Track Severe Weather on mobile